首页
METAR-TAF:

METAR-TAF

机场 :

Churchill, 曼尼托巴, 加拿大

纬度: 58-44N, 经度: 094-04W, 海拔: 28米

当前天气观测

该预报发布于19分钟前的11:00 UTC
风速6节,风向西转西北
温度 -23°C
湿度 84%
气压 1024 hPa
能見度: 24.1公里
少量云层高于1100英尺

METAR: CYYQ 211100Z 29006KT 15SM FEW011 M23/M25 A3024 RMK SF1 SF TR SLP247

时间: 06:19 (11:19 UTC)

预报

该预报发布于5小时和39分钟前的05:40 UTC
预报有效从21日的 06点(UTC)到 22日的 06点(UTC)
风速10节,风向
能見度: 10公里
散云层高于1200英尺
短暂存在
从 21日的 06点(UTC)到 21日的 15点(UTC)
能見度: 10公里
少量云层高于800英尺
多云层高于1200英尺
小雪
从 21日的 1500点(UTC)
风速5节,风向东北
能見度: 10公里
少量云层高于1500英尺
散云层高于14000英尺
从 21日的 1900点(UTC)
风速5节,风向东转东南
能見度: 10公里
多云层高于11000英尺
从 21日的 2300点(UTC)
风速8节,风向东南
能見度: 10公里
多云层高于5000英尺
短暂存在
从 21日的 23点(UTC)到 22日的 06点(UTC)
能見度: 10公里
多云层高于3000英尺
小阵雪

TAF: CYYQ 210540Z 2106/2206 36010KT P6SM SCT012 TEMPO 2106/2115 P6SM -SN FEW008 BKN012 FM211500 05005KT P6SM FEW015 SCT140 FM211900 12005KT P6SM BKN110 FM212300 13008KT P6SM BKN050 TEMPO 2123/2206 P6SM -SHSN BKN030 RMK NXT FCST BY 211200Z

超过4000个机场的气象观测和天气预报(METAR&TAF报告)。

可查询的气象台以黄色和红色小点在地图上表示。

将鼠标移到小点上方,可查看气象台名称。

然后点击查看天气观测和预报。

如需切换地图:点击带黑十字的绿色按钮放大地图;点击带横线的绿色按钮缩小地图;或者点击绿色箭头查看邻近地区的地图。


METAR-TAF: